Ir al Módulo  



logo_vatsim
logo_vatsur

 


NUEVO SECTOR FILE COLOMBIA
Octubre 16 de 2014

Los invitamos a descargar el nuevo SectorFile de Colombia!




Festival Cuna de Acordeones
Octubre 12 de 2014

Los esperamos a todos en Riohacha y Valledupar el próximo Viernes 17 de Octubre!




Nuevo Escenario de Bogotá Recomendado
Septiembre 26 de 2014

Los invitamos a conocer el escenario desarrollado por LR30 Scenery Design de SKBO. Vatsim Colombia lo reconoce como escenario oficial de la red.

Links:

FS9: http://www.mediafire.com/download/gfuqcb7qb8r9q9n/BOG_2014_FS9.rar
FSX: http://www.mediafire.com/download/b8831kleqc5nc13/LR30_SKBO_V2.rar




 

 
Untitled Document
SKAR 010400Z 00000KT 9999 SCT030 19/18 A3010
SKBG 010400Z 32006KT 5000 BCFG SCT004 BKN070 20/19 A3005
SKBO 010400Z 34003KT 9999 VCSH SCT017 SCT080 12/11 A3035 RMK VCSH/SE
SKBQ 010400Z 24005KT 9999 FEW015 25/25 A2990
SKCG 010400Z 10003KT 9999 FEW017 SCT200 26/25 A2987
SKCL 010400Z 06004KT 9999 FEW020 SCT200 20/18 A3002
SKPE 010400Z 10006KT 9999 FEW016 SCT200 19/16 A3006
SKRG 010400Z 00000KT 9999 TSRA BKN010 FEW015CB BKN080 14/13 A3032 RMK CB/SE